createdAt,value
2023-02-03T00:00:20.477Z,96687.63
2023-02-03T00:02:48.095Z,96708.03
2023-02-03T00:05:17.191Z,96705.88
2023-02-03T00:07:45.080Z,96702.94
2023-02-03T00:10:12.773Z,96712.53
2023-02-03T00:12:40.457Z,96702.72
2023-02-03T00:15:09.605Z,96709.97
2023-02-03T00:17:37.210Z,96710.19
2023-02-03T00:20:05.833Z,96690.75
2023-02-03T00:22:34.826Z,96684.13
2023-02-03T00:25:03.040Z,96689.34
2023-02-03T00:27:30.659Z,96683.25
2023-02-03T00:29:59.598Z,96692.00
2023-02-03T00:32:27.316Z,96684.22
2023-02-03T00:34:55.795Z,96682.97
2023-02-03T00:37:23.987Z,96692.16
2023-02-03T00:39:54.163Z,96696.00
2023-02-03T00:42:21.767Z,96692.41
2023-02-03T00:44:49.390Z,96694.53
2023-02-03T00:47:18.066Z,96684.28
2023-02-03T00:49:45.741Z,96685.59
2023-02-03T00:52:13.547Z,96681.88
2023-02-03T00:54:41.156Z,96689.72
2023-02-03T00:57:11.372Z,96698.81
2023-02-03T00:59:42.662Z,96692.97
2023-02-03T01:02:11.173Z,96694.59
2023-02-03T01:04:39.280Z,96696.69
2023-02-03T01:07:06.990Z,96694.34
2023-02-03T01:09:37.519Z,96705.63
2023-02-03T01:12:06.497Z,96702.25
2023-02-03T01:14:36.212Z,96707.72
2023-02-03T01:17:06.127Z,96711.44
2023-02-03T01:19:33.857Z,96704.19
2023-02-03T01:22:01.923Z,96696.47
2023-02-03T01:24:30.716Z,96704.72
2023-02-03T01:26:59.113Z,96707.28
2023-02-03T01:29:28.984Z,96706.00
2023-02-03T01:31:58.444Z,96704.13
2023-02-03T01:34:26.217Z,96706.78
2023-02-03T01:36:54.164Z,96711.22
2023-02-03T01:39:22.712Z,96698.28
2023-02-03T01:41:50.320Z,96702.72
2023-02-03T01:44:40.941Z,96709.38
2023-02-03T01:47:17.277Z,96705.84
2023-02-03T01:49:49.620Z,96695.00
2023-02-03T01:52:18.554Z,96686.63
2023-02-03T01:54:49.089Z,96677.72
2023-02-03T01:57:21.115Z,96677.03
2023-02-03T01:59:50.836Z,96668.66
2023-02-03T02:02:20.316Z,96675.75
2023-02-03T02:04:54.810Z,96666.44
2023-02-03T02:07:22.952Z,96665.19
2023-02-03T02:09:50.884Z,96677.19
2023-02-03T02:12:19.023Z,96673.44
2023-02-03T02:14:47.955Z,96672.72
2023-02-03T02:17:34.301Z,96683.91
2023-02-03T02:20:33.641Z,96680.78
2023-02-03T02:23:18.676Z,96663.81
2023-02-03T02:26:09.024Z,96661.19
2023-02-03T02:29:00.313Z,96654.56
2023-02-03T02:31:50.318Z,96664.88
2023-02-03T02:34:26.714Z,96673.84
2023-02-03T02:37:05.489Z,96667.75
2023-02-03T02:39:40.863Z,96674.78
2023-02-03T02:42:16.999Z,96666.75
2023-02-03T02:44:50.374Z,96654.84
2023-02-03T02:47:21.604Z,96652.50
2023-02-03T02:49:59.104Z,96651.75
2023-02-03T02:52:30.406Z,96650.78
2023-02-03T02:55:06.858Z,96657.03
2023-02-03T02:57:37.440Z,96628.34
2023-02-03T03:00:06.076Z,96635.38
2023-02-03T03:02:37.442Z,96652.28
2023-02-03T03:05:06.933Z,96652.75
2023-02-03T03:07:44.906Z,96657.22
2023-02-03T03:10:16.263Z,96675.47
2023-02-03T03:12:50.223Z,96670.84
2023-02-03T03:15:23.970Z,96658.47
2023-02-03T03:18:00.610Z,96644.38
2023-02-03T03:20:29.174Z,96642.25
2023-02-03T03:23:01.423Z,96641.06
2023-02-03T03:25:36.105Z,96639.97
2023-02-03T03:28:10.969Z,96655.06
2023-02-03T03:30:40.329Z,96663.78
2023-02-03T03:33:10.907Z,96661.03
2023-02-03T03:35:43.588Z,96662.94
2023-02-03T03:38:19.198Z,96652.06
2023-02-03T03:40:52.703Z,96651.78
2023-02-03T03:43:23.431Z,96661.53
2023-02-03T03:45:56.781Z,96666.53
2023-02-03T03:48:31.662Z,96642.50
2023-02-03T03:51:05.248Z,96644.56
2023-02-03T03:53:38.076Z,96639.09
2023-02-03T03:56:09.452Z,96650.84
2023-02-03T03:58:41.924Z,96636.38
2023-02-03T04:01:10.075Z,96639.47
2023-02-03T04:03:43.207Z,96649.75
2023-02-03T04:06:10.942Z,96651.31
2023-02-03T04:08:39.581Z,96635.41
2023-02-03T04:11:07.423Z,96635.53
2023-02-03T04:13:35.473Z,96654.44
2023-02-03T04:16:03.741Z,96655.50
2023-02-03T04:18:31.736Z,96664.66
2023-02-03T04:21:00.722Z,96666.56
2023-02-03T04:23:28.768Z,96687.00
2023-02-03T04:25:56.356Z,96682.03
2023-02-03T04:28:24.897Z,96693.69
2023-02-03T04:30:52.488Z,96694.16
2023-02-03T04:33:20.462Z,96691.75
2023-02-03T04:35:48.064Z,96683.19
2023-02-03T04:38:17.268Z,96685.97
2023-02-03T04:40:45.870Z,96685.47
2023-02-03T04:43:14.223Z,96671.13
2023-02-03T04:45:42.238Z,96689.75
2023-02-03T04:48:09.884Z,96687.16
2023-02-03T04:50:38.154Z,96688.19
2023-02-03T04:53:05.766Z,96678.25
2023-02-03T04:55:35.346Z,96687.50
2023-02-03T04:58:03.025Z,96682.94
2023-02-03T05:00:31.079Z,96668.47
2023-02-03T05:02:58.818Z,96682.88
2023-02-03T05:05:26.807Z,96679.44
2023-02-03T05:07:54.396Z,96668.75
2023-02-03T05:10:22.824Z,96678.97
2023-02-03T05:12:51.807Z,96682.66
2023-02-03T05:15:20.154Z,96692.97
2023-02-03T05:17:47.803Z,96697.25
2023-02-03T05:20:16.148Z,96710.06
2023-02-03T05:22:43.757Z,96684.53
2023-02-03T05:25:11.999Z,96687.50
2023-02-03T05:27:40.587Z,96676.56
2023-02-03T05:30:11.546Z,96694.03
2023-02-03T05:32:39.228Z,96685.38
2023-02-03T05:35:07.625Z,96677.03
2023-02-03T05:37:35.190Z,96668.13
2023-02-03T05:40:16.742Z,96662.66
2023-02-03T05:42:48.371Z,96662.44
2023-02-03T05:45:18.200Z,96653.53
2023-02-03T05:47:46.093Z,96689.84
2023-02-03T05:50:13.851Z,96668.97
2023-02-03T05:52:41.522Z,96676.94
2023-02-03T05:55:09.392Z,96661.63
2023-02-03T05:57:36.945Z,96646.66
2023-02-03T06:00:06.377Z,96657.97
2023-02-03T06:02:40.576Z,96645.94
2023-02-03T06:05:08.918Z,96645.94
2023-02-03T06:07:36.828Z,96647.81
2023-02-03T06:10:05.169Z,96647.94
2023-02-03T06:12:32.778Z,96656.38
2023-02-03T06:15:00.838Z,96658.06
2023-02-03T06:17:28.417Z,96651.06
2023-02-03T06:19:57.592Z,96661.69
2023-02-03T06:22:25.205Z,96646.75
2023-02-03T06:24:53.477Z,96646.69
2023-02-03T06:27:21.152Z,96665.41
2023-02-03T06:29:49.467Z,96655.47
2023-02-03T06:32:17.180Z,96651.84
2023-02-03T06:34:44.972Z,96667.44
2023-02-03T06:37:13.997Z,96664.13
2023-02-03T06:39:41.605Z,96667.66
2023-02-03T06:42:09.590Z,96652.16
2023-02-03T06:44:37.182Z,96675.97
2023-02-03T06:47:05.642Z,96671.75
2023-02-03T06:49:33.408Z,96653.16
2023-02-03T06:52:01.021Z,96672.25
2023-02-03T06:54:29.926Z,96675.25
2023-02-03T06:56:58.324Z,96702.19
2023-02-03T06:59:26.029Z,96683.91
2023-02-03T07:01:54.271Z,96685.81
2023-02-03T07:04:21.885Z,96668.13
2023-02-03T07:06:49.818Z,96669.84
2023-02-03T07:09:17.449Z,96671.50
2023-02-03T07:11:47.387Z,96665.25
2023-02-03T07:14:15.069Z,96656.47
2023-02-03T07:16:43.626Z,96668.16
2023-02-03T07:19:11.358Z,96658.09
2023-02-03T07:21:39.391Z,96653.31
2023-02-03T07:24:07.388Z,96637.88
2023-02-03T07:26:35.316Z,96645.91
2023-02-03T07:29:04.259Z,96640.69
2023-02-03T07:31:32.918Z,96649.50
2023-02-03T07:34:01.084Z,96625.94
2023-02-03T07:36:29.154Z,96615.56
2023-02-03T07:38:56.919Z,96618.59
2023-02-03T07:41:24.708Z,96610.88
2023-02-03T07:43:52.285Z,96629.25
2023-02-03T07:46:21.596Z,96635.53
2023-02-03T07:48:49.211Z,96607.25
2023-02-03T07:51:17.077Z,96605.97
2023-02-03T07:53:44.651Z,96614.25
2023-02-03T07:56:13.143Z,96631.31
2023-02-03T07:58:40.807Z,96644.19
2023-02-03T08:01:12.679Z,96647.09
2023-02-03T08:03:41.958Z,96635.00
2023-02-03T08:06:10.124Z,96626.66
2023-02-03T08:08:38.111Z,96643.03
2023-02-03T08:11:06.173Z,96646.28
2023-02-03T08:13:33.992Z,96649.91
2023-02-03T08:16:01.720Z,96655.38
2023-02-03T08:18:32.545Z,96652.94
2023-02-03T08:21:04.060Z,96674.19
2023-02-03T08:23:32.085Z,96674.41
2023-02-03T08:25:59.722Z,96682.19
2023-02-03T08:28:28.039Z,96675.38
2023-02-03T08:30:56.571Z,96681.47
2023-02-03T08:33:24.731Z,96682.06
2023-02-03T08:35:52.328Z,96679.63
2023-02-03T08:38:21.873Z,96680.66
2023-02-03T08:40:49.492Z,96675.41
2023-02-03T08:43:17.549Z,96674.81
2023-02-03T08:45:45.214Z,96653.91
2023-02-03T08:48:13.520Z,96668.00
2023-02-03T08:50:42.433Z,96665.19
2023-02-03T08:53:10.054Z,96672.38
2023-02-03T08:55:40.988Z,96677.84
2023-02-03T08:58:09.257Z,96667.50
2023-02-03T09:00:36.852Z,96661.09
2023-02-03T09:03:05.056Z,96649.03
2023-02-03T09:05:33.503Z,96650.06
2023-02-03T09:08:01.460Z,96657.59
2023-02-03T09:10:29.579Z,96651.75
2023-02-03T09:12:59.232Z,96650.28
2023-02-03T09:15:27.034Z,96672.47
2023-02-03T09:17:57.060Z,96652.09
2023-02-03T09:20:26.356Z,96665.03
2023-02-03T09:22:55.314Z,96667.28
2023-02-03T09:25:22.909Z,96681.47
2023-02-03T09:27:50.823Z,96644.56
2023-02-03T09:30:20.219Z,96664.78
2023-02-03T09:32:54.012Z,96649.22
2023-02-03T09:35:21.694Z,96649.81
2023-02-03T09:37:50.059Z,96663.06
2023-02-03T09:40:23.100Z,96652.44
2023-02-03T09:43:07.829Z,96646.13
2023-02-03T09:45:36.945Z,96619.63
2023-02-03T09:48:11.535Z,96645.88
2023-02-03T09:50:42.207Z,96643.09
2023-02-03T09:53:25.075Z,96630.78
2023-02-03T09:55:52.758Z,96625.69
2023-02-03T09:58:23.373Z,96627.66
2023-02-03T10:00:55.382Z,96622.25
2023-02-03T10:03:33.736Z,96638.53
2023-02-03T10:06:13.619Z,96658.56
2023-02-03T10:08:56.656Z,96657.41
2023-02-03T10:11:41.715Z,96681.13
2023-02-03T10:14:22.334Z,96656.50
2023-02-03T10:17:06.543Z,96629.81
2023-02-03T10:19:43.373Z,96631.22
2023-02-03T10:22:16.140Z,96624.84
2023-02-03T10:24:52.252Z,96616.84
2023-02-03T10:27:23.310Z,96617.94
2023-02-03T10:29:58.527Z,96617.41
2023-02-03T10:32:28.127Z,96617.97
2023-02-03T10:34:56.143Z,96630.81
2023-02-03T10:37:30.280Z,96618.25
2023-02-03T10:40:01.819Z,96631.25
2023-02-03T10:42:51.055Z,96621.97
2023-02-03T10:45:19.605Z,96640.91
2023-02-03T10:47:51.797Z,96619.91
2023-02-03T10:50:24.761Z,96612.72
2023-02-03T10:52:52.374Z,96603.59
2023-02-03T10:55:31.859Z,96626.53
2023-02-03T10:58:11.496Z,96615.47
2023-02-03T11:00:40.658Z,96617.25
2023-02-03T11:03:22.968Z,96618.78
2023-02-03T11:06:05.717Z,96629.59
2023-02-03T11:08:34.595Z,96631.22
2023-02-03T11:11:07.135Z,96632.03
2023-02-03T11:13:35.635Z,96623.63
2023-02-03T11:16:05.398Z,96630.13
2023-02-03T11:18:59.349Z,96636.34
2023-02-03T11:21:30.925Z,96626.53
2023-02-03T11:24:04.661Z,96598.03
2023-02-03T11:26:36.827Z,96604.44
2023-02-03T11:29:08.469Z,96607.63
2023-02-03T11:31:37.517Z,96621.28
2023-02-03T11:34:16.389Z,96617.16
2023-02-03T11:36:44.040Z,96621.84
2023-02-03T11:39:19.431Z,96595.59
2023-02-03T11:41:48.133Z,96594.50
2023-02-03T11:44:20.615Z,96598.50
2023-02-03T11:46:51.287Z,96591.44
2023-02-03T11:49:45.515Z,96589.25
2023-02-03T11:52:31.824Z,96572.81
2023-02-03T11:55:08.556Z,96559.69
2023-02-03T11:57:48.783Z,96564.38
2023-02-03T12:00:31.214Z,96562.59
2023-02-03T12:03:33.277Z,96550.28
2023-02-03T12:06:13.918Z,96548.34
2023-02-03T12:08:55.807Z,96544.91
2023-02-03T12:11:39.094Z,96558.84
2023-02-03T12:14:23.153Z,96559.13
2023-02-03T12:17:12.242Z,96552.75
2023-02-03T12:19:54.458Z,96545.88
2023-02-03T12:22:31.495Z,96538.44
2023-02-03T12:25:08.500Z,96574.59
2023-02-03T12:27:45.784Z,96527.06
2023-02-03T12:30:18.439Z,96533.16
2023-02-03T12:32:51.223Z,96522.53
2023-02-03T12:35:25.001Z,96528.22
2023-02-03T12:37:59.942Z,96513.00
2023-02-03T12:40:37.075Z,96504.97
2023-02-03T12:43:19.427Z,96532.59
2023-02-03T12:45:55.301Z,96501.31
2023-02-03T12:48:28.277Z,96515.63
2023-02-03T12:51:01.061Z,96493.19
2023-02-03T12:53:34.176Z,96446.72
2023-02-03T12:56:05.948Z,96442.88
2023-02-03T12:58:38.720Z,96469.56
2023-02-03T13:01:13.354Z,96458.19
2023-02-03T13:03:46.441Z,96437.22
2023-02-03T13:06:20.112Z,96431.47
2023-02-03T13:08:59.202Z,96460.50
2023-02-03T13:11:35.410Z,96409.34
2023-02-03T13:14:13.565Z,96415.00
2023-02-03T13:16:45.858Z,96428.41
2023-02-03T13:19:19.722Z,96423.13
2023-02-03T13:21:49.396Z,96429.41
2023-02-03T13:24:18.791Z,96410.97
2023-02-03T13:27:15.783Z,96417.22
2023-02-03T13:29:55.475Z,96416.66
2023-02-03T13:32:36.712Z,96412.81
2023-02-03T13:35:24.812Z,96412.00
2023-02-03T13:38:23.062Z,96409.94
2023-02-03T13:41:02.052Z,96418.69
2023-02-03T13:43:38.739Z,96432.00
2023-02-03T13:46:19.880Z,96439.75
2023-02-03T13:48:47.836Z,96421.41
2023-02-03T13:51:19.146Z,96426.84
2023-02-03T13:53:49.189Z,96392.78
2023-02-03T13:56:21.976Z,96387.91
2023-02-03T13:59:05.019Z,96407.75
2023-02-03T14:01:37.001Z,96416.59
2023-02-03T14:04:06.228Z,96417.16
2023-02-03T14:07:00.351Z,96402.31
2023-02-03T14:09:41.699Z,96377.94
2023-02-03T14:12:22.853Z,96366.63
2023-02-03T14:15:04.862Z,96380.72
2023-02-03T14:18:01.618Z,96367.78
2023-02-03T14:20:41.944Z,96392.25
2023-02-03T14:23:17.170Z,96354.56
2023-02-03T14:25:49.413Z,96370.19
2023-02-03T14:28:21.480Z,96376.38
2023-02-03T14:31:07.159Z,96401.53
2023-02-03T14:34:06.441Z,96379.84
2023-02-03T14:36:47.585Z,96385.53
2023-02-03T14:39:55.096Z,96351.31
2023-02-03T14:42:51.956Z,96377.78
2023-02-03T14:45:45.685Z,96395.44
2023-02-03T14:48:29.443Z,96382.25
2023-02-03T14:51:08.240Z,96399.34
2023-02-03T14:53:48.613Z,96394.06
2023-02-03T14:56:26.034Z,96381.13
2023-02-03T14:59:01.917Z,96403.47
2023-02-03T15:02:11.036Z,96384.47
2023-02-03T15:04:38.832Z,96366.09
2023-02-03T15:07:08.075Z,96361.41
2023-02-03T15:09:40.106Z,96359.56
2023-02-03T15:12:19.394Z,96365.16
2023-02-03T15:14:47.015Z,96344.06
2023-02-03T15:17:24.161Z,96348.72
2023-02-03T15:19:52.405Z,96370.13
2023-02-03T15:22:22.142Z,96362.09
2023-02-03T15:24:52.523Z,96337.03
2023-02-03T15:27:25.448Z,96377.13
2023-02-03T15:29:53.533Z,96388.03
2023-02-03T15:32:29.441Z,96387.50
2023-02-03T15:34:59.559Z,96386.91
2023-02-03T15:37:34.206Z,96399.34
2023-02-03T15:40:05.812Z,96381.72
2023-02-03T15:42:39.383Z,96390.78
2023-02-03T15:45:17.829Z,96378.66
2023-02-03T15:47:53.110Z,96390.78
2023-02-03T15:50:31.543Z,96373.38
2023-02-03T15:53:05.991Z,96363.06
2023-02-03T15:55:38.115Z,96354.38
2023-02-03T15:58:06.954Z,96369.84
2023-02-03T16:00:39.547Z,96359.09
2023-02-03T16:03:20.220Z,96335.63
2023-02-03T16:05:50.253Z,96380.31
2023-02-03T16:08:39.756Z,96379.75
2023-02-03T16:11:41.655Z,96406.66
2023-02-03T16:14:13.174Z,96404.00
2023-02-03T16:16:55.206Z,96423.63
2023-02-03T16:19:34.528Z,96422.59
2023-02-03T16:22:02.091Z,96418.34
2023-02-03T16:24:42.645Z,96432.00
2023-02-03T16:27:33.956Z,96410.94
2023-02-03T16:30:42.373Z,96400.06
2023-02-03T16:33:35.777Z,96414.53
2023-02-03T16:36:30.594Z,96413.16
2023-02-03T16:39:20.402Z,96414.81
2023-02-03T16:42:05.986Z,96410.66
2023-02-03T16:44:51.715Z,96426.50
2023-02-03T16:47:43.327Z,96443.63
2023-02-03T16:50:38.525Z,96431.50
2023-02-03T16:53:14.115Z,96449.19
2023-02-03T16:55:42.566Z,96456.13
2023-02-03T16:58:11.878Z,96450.91
2023-02-03T17:00:41.458Z,96438.25
2023-02-03T17:03:10.957Z,96450.91
2023-02-03T17:05:39.211Z,96471.31
2023-02-03T17:08:08.991Z,96470.63
2023-02-03T17:10:37.728Z,96476.50
2023-02-03T17:13:05.980Z,96483.66
2023-02-03T17:15:34.023Z,96471.09
2023-02-03T17:18:02.015Z,96456.91
2023-02-03T17:20:29.774Z,96474.19
2023-02-03T17:22:57.402Z,96458.41
2023-02-03T17:25:27.352Z,96476.72
2023-02-03T17:27:55.544Z,96484.94
2023-02-03T17:30:23.167Z,96488.50
2023-02-03T17:32:50.763Z,96470.84
2023-02-03T17:35:18.891Z,96479.06
2023-02-03T17:37:46.529Z,96462.25
2023-02-03T17:54:06.569Z,96458.91
2023-02-03T17:56:35.845Z,96464.34
2023-02-03T17:59:06.154Z,96434.91
2023-02-03T18:01:34.259Z,96452.72
2023-02-03T18:04:05.515Z,96438.44
2023-02-03T18:06:35.125Z,96456.56
2023-02-03T18:09:03.169Z,96457.97
2023-02-03T18:11:31.997Z,96465.09
2023-02-03T18:14:00.208Z,96478.50
2023-02-03T18:16:33.567Z,96475.53
2023-02-03T18:19:02.739Z,96488.50
2023-02-03T18:21:32.670Z,96471.25
2023-02-03T18:24:01.889Z,96464.56
2023-02-03T18:26:32.903Z,96489.38
2023-02-03T18:29:00.544Z,96471.72
2023-02-03T18:31:30.320Z,96473.19
2023-02-03T18:34:02.689Z,96464.44
2023-02-03T18:36:30.697Z,96473.16
2023-02-03T18:38:58.299Z,96469.66
2023-02-03T18:41:26.442Z,96486.84
2023-02-03T18:43:54.073Z,96459.63
2023-02-03T18:46:23.973Z,96483.44
2023-02-03T18:48:53.632Z,96499.31
2023-02-03T18:51:22.100Z,96493.84
2023-02-03T18:53:50.800Z,96461.84
2023-02-03T18:56:21.417Z,96502.53
2023-02-03T18:58:49.807Z,96480.13
2023-02-03T19:01:22.861Z,96476.94
2023-02-03T19:03:50.559Z,96469.38
2023-02-03T19:06:20.054Z,96487.28
2023-02-03T19:08:48.033Z,96505.81
2023-02-03T19:11:16.146Z,96486.88
2023-02-03T19:13:44.081Z,96500.91
2023-02-03T19:16:17.075Z,96498.16
2023-02-03T19:18:44.792Z,96474.50
2023-02-03T19:21:14.349Z,96501.22
2023-02-03T19:23:43.879Z,96504.53
2023-02-03T19:26:12.349Z,96509.22
2023-02-03T19:28:40.467Z,96505.25
2023-02-03T19:31:11.681Z,96475.69
2023-02-03T19:33:39.729Z,96489.56
2023-02-03T19:36:08.895Z,96514.16
2023-02-03T19:38:36.849Z,96532.81
2023-02-03T19:41:07.347Z,96522.00
2023-02-03T19:43:35.700Z,96519.97
2023-02-03T19:46:03.385Z,96510.50
2023-02-03T19:48:31.380Z,96507.81
2023-02-03T19:50:59.362Z,96515.00
2023-02-03T19:53:27.546Z,96498.66
2023-02-03T19:55:55.114Z,96491.63
2023-02-03T19:58:24.571Z,96515.84
2023-02-03T20:00:52.212Z,96502.19
2023-02-03T20:03:20.631Z,96505.56
2023-02-03T20:05:48.237Z,96524.31
2023-02-03T20:08:16.994Z,96518.47
2023-02-03T20:10:45.495Z,96516.44
2023-02-03T20:13:14.298Z,96509.69
2023-02-03T20:15:44.209Z,96521.38
2023-02-03T20:18:12.444Z,96523.41
2023-02-03T20:20:40.116Z,96488.84
2023-02-03T20:23:08.074Z,96520.44
2023-02-03T20:25:35.640Z,96502.75
2023-02-03T20:28:04.568Z,96520.91
2023-02-03T20:30:32.699Z,96517.78
2023-02-03T20:33:02.299Z,96526.75
2023-02-03T20:35:30.152Z,96530.16
2023-02-03T20:37:58.200Z,96521.31
2023-02-03T20:40:27.643Z,96523.50
2023-02-03T20:42:55.579Z,96536.16
2023-02-03T20:45:25.334Z,96510.94
2023-02-03T20:47:53.523Z,96512.44
2023-02-03T20:50:31.708Z,96507.44
2023-02-03T20:53:12.814Z,96515.53
2023-02-03T20:55:40.980Z,96519.69
2023-02-03T20:58:18.058Z,96518.56
2023-02-03T21:00:46.547Z,96490.09
2023-02-03T21:03:33.826Z,96508.59
2023-02-03T21:06:03.306Z,96520.31
2023-02-03T21:08:31.722Z,96531.09
2023-02-03T21:10:59.310Z,96519.13
2023-02-03T21:13:30.357Z,96513.44
2023-02-03T21:16:02.573Z,96536.19
2023-02-03T21:18:38.336Z,96542.47
2023-02-03T21:21:14.670Z,96519.59
2023-02-03T21:23:47.287Z,96515.09
2023-02-03T21:26:20.678Z,96534.69
2023-02-03T21:28:51.736Z,96527.88
2023-02-03T21:31:23.173Z,96533.19
2023-02-03T21:33:53.683Z,96528.31
2023-02-03T21:36:25.154Z,96529.66
2023-02-03T21:38:54.889Z,96521.47
2023-02-03T21:41:23.834Z,96513.91
2023-02-03T21:43:53.769Z,96520.47
2023-02-03T21:46:26.489Z,96530.91
2023-02-03T21:48:55.894Z,96544.06
2023-02-03T21:51:26.605Z,96528.63
2023-02-03T21:53:56.359Z,96525.50
2023-02-03T21:56:26.461Z,96520.84
2023-02-03T21:58:59.166Z,96522.50
2023-02-03T22:01:28.218Z,96533.38
2023-02-03T22:03:59.157Z,96522.63
2023-02-03T22:06:29.889Z,96529.47
2023-02-03T22:08:59.750Z,96531.47
2023-02-03T22:11:30.181Z,96534.19
2023-02-03T22:13:58.788Z,96545.16
2023-02-03T22:16:26.811Z,96543.81
2023-02-03T22:18:54.426Z,96544.75
2023-02-03T22:21:22.473Z,96545.13
2023-02-03T22:23:52.007Z,96528.84
2023-02-03T22:26:20.379Z,96547.31
2023-02-03T22:28:48.237Z,96526.66
2023-02-03T22:31:16.461Z,96530.41
2023-02-03T22:33:44.637Z,96517.84
2023-02-03T22:36:13.103Z,96518.50
2023-02-03T22:38:42.303Z,96526.66
2023-02-03T22:41:12.904Z,96535.88
2023-02-03T22:43:41.296Z,96527.31
2023-02-03T22:46:09.579Z,96542.75
2023-02-03T22:48:37.185Z,96541.38
2023-02-03T22:51:05.020Z,96551.63
2023-02-03T22:53:34.652Z,96555.38
2023-02-03T22:56:03.180Z,96553.13
2023-02-03T22:58:32.144Z,96547.91
2023-02-03T23:01:00.053Z,96545.91
2023-02-03T23:03:27.790Z,96560.03
2023-02-03T23:05:56.701Z,96556.63
2023-02-03T23:08:24.301Z,96552.03
2023-02-03T23:10:52.266Z,96564.16
2023-02-03T23:13:19.882Z,96554.53
2023-02-03T23:15:49.373Z,96559.13
2023-02-03T23:18:16.950Z,96541.00
2023-02-03T23:20:45.409Z,96542.66
2023-02-03T23:23:14.088Z,96538.59
2023-02-03T23:25:42.024Z,96535.06
2023-02-03T23:28:09.682Z,96553.88
2023-02-03T23:30:38.468Z,96549.41
2023-02-03T23:33:08.014Z,96543.06
2023-02-03T23:35:47.320Z,96541.84
2023-02-03T23:38:15.781Z,96549.56
2023-02-03T23:40:43.436Z,96547.75
2023-02-03T23:43:11.496Z,96543.28
2023-02-03T23:45:39.145Z,96555.28
2023-02-03T23:48:08.640Z,96563.16
2023-02-03T23:50:36.349Z,96553.75
2023-02-03T23:53:04.004Z,96553.34
2023-02-03T23:55:31.612Z,96568.81
2023-02-03T23:57:59.191Z,96569.03
